createdAt,value
2022-10-23T03:02:11.919Z,99.90
2022-10-23T03:04:41.911Z,99.90
2022-10-23T03:07:12.451Z,99.90
2022-10-23T03:09:39.557Z,99.90
2022-10-23T03:12:07.386Z,99.90
2022-10-23T03:14:34.981Z,99.90
2022-10-23T03:17:02.983Z,99.90
2022-10-23T03:19:31.271Z,99.90
2022-10-23T03:21:58.869Z,99.90
2022-10-23T03:24:25.835Z,99.90
2022-10-23T03:26:52.775Z,99.90
2022-10-23T03:29:29.363Z,99.90
2022-10-23T03:31:56.269Z,99.90
2022-10-23T03:34:23.599Z,99.90
2022-10-23T03:36:54.415Z,99.90
2022-10-23T03:39:21.717Z,99.90
2022-10-23T03:41:48.925Z,99.90
2022-10-23T03:44:17.623Z,99.90
2022-10-23T03:46:45.713Z,99.90
2022-10-23T03:49:12.689Z,99.90
2022-10-23T03:51:44.739Z,99.90
2022-10-23T03:54:13.032Z,99.90
2022-10-23T03:56:39.907Z,99.90
2022-10-23T03:59:08.534Z,99.90
2022-10-23T04:01:35.476Z,99.90
2022-10-23T04:04:03.483Z,99.90
2022-10-23T04:06:30.482Z,99.90
2022-10-23T04:08:59.025Z,99.90
2022-10-23T04:11:27.341Z,99.90
2022-10-23T04:13:54.228Z,99.90
2022-10-23T04:16:21.257Z,99.90
2022-10-23T04:18:48.193Z,99.90
2022-10-23T04:21:15.193Z,99.90
2022-10-23T04:23:42.799Z,99.90
2022-10-23T04:26:14.972Z,99.90
2022-10-23T04:28:43.320Z,99.90
2022-10-23T04:31:10.610Z,99.90
2022-10-23T04:33:40.956Z,99.90
2022-10-23T04:36:08.733Z,99.90
2022-10-23T04:38:35.676Z,99.90
2022-10-23T04:41:03.610Z,99.90
2022-10-23T04:43:30.540Z,99.90
2022-10-23T04:45:59.228Z,99.90
2022-10-23T04:48:28.444Z,99.90
2022-10-23T04:51:14.748Z,99.90
2022-10-23T04:54:02.583Z,99.90
2022-10-23T04:56:46.571Z,99.90
2022-10-23T04:59:17.202Z,99.90
2022-10-23T05:01:46.318Z,99.90
2022-10-23T05:04:14.197Z,99.90
2022-10-23T05:07:01.153Z,99.90
2022-10-23T05:09:45.346Z,99.90
2022-10-23T05:12:21.141Z,99.90
2022-10-23T05:14:48.061Z,99.90
2022-10-23T05:17:19.032Z,99.90
2022-10-23T05:19:50.633Z,99.90
2022-10-23T05:22:19.325Z,99.90
2022-10-23T05:24:50.738Z,99.90
2022-10-23T05:27:21.511Z,99.90
2022-10-23T05:29:48.751Z,99.90
2022-10-23T05:34:48.325Z,99.90
2022-10-23T05:37:16.542Z,99.90
2022-10-23T05:39:44.788Z,99.90
2022-10-23T05:42:14.055Z,99.90
2022-10-23T05:44:42.096Z,99.90
2022-10-23T05:47:39.585Z,99.90
2022-10-23T05:50:15.699Z,99.90
2022-10-23T05:53:11.783Z,99.90
2022-10-23T05:55:51.341Z,99.90
2022-10-23T05:58:36.895Z,99.90
2022-10-23T06:01:13.209Z,99.90
2022-10-23T06:03:55.745Z,99.90
2022-10-23T06:06:29.467Z,99.90
2022-10-23T06:08:56.647Z,99.90
2022-10-23T06:11:23.653Z,99.90
2022-10-23T06:14:00.702Z,99.90
2022-10-23T06:16:27.863Z,99.90
2022-10-23T06:18:57.384Z,99.90
2022-10-23T06:21:24.852Z,99.90
2022-10-23T06:23:52.787Z,99.90
2022-10-23T06:26:23.015Z,99.90
2022-10-23T06:29:11.219Z,99.90
2022-10-23T06:31:40.505Z,99.90
2022-10-23T06:34:11.224Z,99.90
2022-10-23T06:36:38.455Z,99.90
2022-10-23T06:39:26.135Z,99.90
2022-10-23T06:42:05.176Z,99.90
2022-10-23T06:44:50.911Z,99.90
2022-10-23T06:47:32.231Z,99.90
2022-10-23T06:50:36.984Z,99.90
2022-10-23T06:53:08.019Z,99.90
2022-10-23T06:55:39.914Z,99.90
2022-10-23T06:58:10.733Z,99.90
2022-10-23T07:00:48.717Z,99.90
2022-10-23T07:03:15.729Z,99.90
2022-10-23T07:05:44.925Z,99.90
2022-10-23T07:08:13.673Z,99.90
2022-10-23T07:10:43.821Z,99.90
2022-10-23T07:13:11.410Z,99.90
2022-10-23T07:15:40.933Z,99.90
2022-10-23T07:18:17.377Z,99.90
2022-10-23T07:21:04.604Z,99.90
2022-10-23T07:23:32.551Z,99.90
2022-10-23T07:26:04.675Z,99.90
2022-10-23T07:28:31.697Z,99.90
2022-10-23T07:30:59.924Z,99.90
2022-10-23T07:33:41.774Z,99.90
2022-10-23T07:36:17.386Z,99.90
2022-10-23T07:38:45.013Z,99.90
2022-10-23T07:41:13.072Z,99.90
2022-10-23T07:43:40.005Z,99.90
2022-10-23T07:46:09.706Z,99.90
2022-10-23T07:48:40.406Z,99.90
2022-10-23T07:51:12.118Z,99.90
2022-10-23T07:53:49.036Z,99.90
2022-10-23T07:56:31.513Z,99.90
2022-10-23T07:59:20.461Z,99.90
2022-10-23T08:01:56.315Z,99.90
2022-10-23T08:04:28.095Z,99.90
2022-10-23T08:07:01.113Z,99.90
2022-10-23T08:09:34.440Z,99.90
2022-10-23T08:12:03.598Z,99.90
2022-10-23T08:14:30.611Z,99.90
2022-10-23T08:16:57.643Z,99.90
2022-10-23T08:19:46.393Z,99.90
2022-10-23T08:22:13.908Z,99.90
2022-10-23T08:24:42.469Z,99.90
2022-10-23T08:27:09.553Z,99.90
2022-10-23T08:29:42.417Z,99.90
2022-10-23T08:32:09.553Z,99.90
2022-10-23T08:34:48.236Z,99.90
2022-10-23T08:37:15.187Z,99.90
2022-10-23T08:39:43.671Z,99.90
2022-10-23T08:42:21.193Z,99.90
2022-10-23T08:44:57.210Z,99.90
2022-10-23T08:47:30.874Z,99.90
2022-10-23T08:50:38.782Z,99.90
2022-10-23T08:53:13.134Z,99.90
2022-10-23T08:55:45.300Z,99.90
2022-10-23T08:58:17.183Z,99.90
2022-10-23T09:00:46.024Z,99.90
2022-10-23T09:03:13.508Z,99.90
2022-10-23T09:06:01.741Z,99.10
2022-10-23T09:08:42.152Z,94.60
2022-10-23T09:11:16.193Z,95.10
2022-10-23T09:14:19.063Z,94.20
2022-10-23T09:16:55.904Z,93.40
2022-10-23T09:19:27.062Z,92.00
2022-10-23T09:21:55.609Z,91.90
2022-10-23T09:24:25.526Z,91.00
2022-10-23T09:26:54.694Z,91.70
2022-10-23T09:29:25.308Z,91.70
2022-10-23T09:31:53.803Z,91.40
2022-10-23T09:34:23.333Z,90.90
2022-10-23T09:36:52.627Z,91.10
2022-10-23T09:39:24.060Z,91.80
2022-10-23T09:41:54.149Z,91.60
2022-10-23T09:44:27.954Z,90.80
2022-10-23T09:46:58.966Z,90.20
2022-10-23T09:49:27.814Z,90.20
2022-10-23T09:52:01.747Z,90.70
2022-10-23T09:54:30.783Z,90.70
2022-10-23T09:57:02.264Z,90.70
2022-10-23T09:59:31.765Z,90.40
2022-10-23T10:02:00.997Z,90.20
2022-10-23T10:04:49.359Z,89.30
2022-10-23T10:07:20.807Z,87.40
2022-10-23T10:09:48.144Z,88.60
2022-10-23T10:12:30.258Z,88.20
2022-10-23T10:15:05.088Z,88.50
2022-10-23T10:17:39.731Z,88.70
2022-10-23T10:20:38.267Z,87.60
2022-10-23T10:23:12.727Z,89.30
2022-10-23T10:25:51.290Z,90.70
2022-10-23T10:28:30.931Z,90.60
2022-10-23T10:31:10.503Z,91.20
2022-10-23T10:33:47.868Z,91.20
2022-10-23T10:36:30.434Z,91.10
2022-10-23T10:39:00.865Z,91.40
2022-10-23T10:41:37.421Z,91.60
2022-10-23T10:44:24.788Z,91.70
2022-10-23T10:46:58.403Z,91.60
2022-10-23T10:49:38.380Z,91.50
2022-10-23T10:52:25.552Z,92.20
2022-10-23T10:55:00.825Z,92.00
2022-10-23T10:57:32.344Z,92.60
2022-10-23T11:00:04.078Z,92.80
2022-10-23T11:02:39.104Z,91.90
2022-10-23T11:05:18.856Z,92.40
2022-10-23T11:07:56.947Z,92.40
2022-10-23T11:10:23.993Z,92.30
2022-10-23T11:12:51.702Z,92.30
2022-10-23T11:15:22.349Z,92.90
2022-10-23T11:17:53.965Z,93.10
2022-10-23T11:20:54.488Z,93.30
2022-10-23T11:24:01.805Z,93.90
2022-10-23T11:26:51.952Z,94.20
2022-10-23T11:29:44.647Z,94.30
2022-10-23T11:32:31.496Z,94.40
2022-10-23T11:35:10.895Z,94.90
2022-10-23T11:37:37.899Z,94.90
2022-10-23T11:40:21.752Z,95.60
2022-10-23T11:42:50.706Z,95.60
2022-10-23T11:45:33.150Z,96.00
2022-10-23T11:48:02.151Z,97.00
2022-10-23T11:50:33.869Z,96.40
2022-10-23T11:53:14.691Z,95.30
2022-10-23T11:55:58.555Z,95.00
2022-10-23T11:58:32.180Z,95.20
2022-10-23T12:01:03.465Z,95.20
2022-10-23T12:03:40.610Z,94.60
2022-10-23T12:06:21.936Z,94.60
2022-10-23T12:08:54.064Z,94.20
2022-10-23T12:11:39.091Z,94.60
2022-10-23T12:14:25.091Z,94.50
2022-10-23T12:16:51.995Z,94.10
2022-10-23T12:19:21.998Z,93.60
2022-10-23T12:21:53.349Z,94.50
2022-10-23T12:24:39.899Z,95.20
2022-10-23T12:27:17.106Z,95.20
2022-10-23T12:30:00.179Z,95.60
2022-10-23T12:32:42.074Z,95.30
2022-10-23T12:35:32.746Z,95.00
2022-10-23T12:38:13.754Z,94.00
2022-10-23T12:40:40.971Z,93.70
2022-10-23T12:43:23.287Z,94.30
2022-10-23T12:45:51.075Z,94.60
2022-10-23T12:48:21.005Z,94.50
2022-10-23T12:50:54.154Z,94.50
2022-10-23T12:53:24.344Z,94.90
2022-10-23T12:55:56.390Z,94.70
2022-10-23T12:58:25.438Z,94.50
2022-10-23T13:00:57.926Z,93.50
2022-10-23T13:03:27.580Z,93.10
2022-10-23T13:05:58.768Z,93.20
2022-10-23T13:08:33.604Z,92.70
2022-10-23T13:11:21.730Z,92.20
2022-10-23T13:13:50.879Z,92.10
2022-10-23T13:16:20.202Z,92.00
2022-10-23T13:18:47.215Z,92.10
2022-10-23T13:21:19.950Z,91.90
2022-10-23T13:23:49.075Z,92.00
2022-10-23T13:26:31.059Z,91.70
2022-10-23T13:28:58.826Z,91.50
2022-10-23T13:31:30.378Z,92.30
2022-10-23T13:34:23.287Z,92.40
2022-10-23T13:37:01.137Z,92.80
2022-10-23T13:39:31.388Z,92.90
2022-10-23T13:42:06.150Z,92.60
2022-10-23T13:44:33.232Z,92.80
2022-10-23T13:47:00.114Z,93.20
2022-10-23T13:49:27.001Z,93.70
2022-10-23T13:51:56.287Z,94.20
2022-10-23T13:54:25.086Z,94.70
2022-10-23T13:56:54.560Z,95.90
2022-10-23T13:59:22.124Z,95.90
2022-10-23T14:01:50.420Z,96.10
2022-10-23T14:04:18.669Z,96.20
2022-10-23T14:06:45.648Z,96.60
2022-10-23T14:09:16.518Z,97.60
2022-10-23T14:11:43.688Z,97.50
2022-10-23T14:14:11.937Z,97.40
2022-10-23T14:16:39.014Z,97.60
2022-10-23T14:19:06.242Z,97.00
2022-10-23T14:21:33.218Z,97.30
2022-10-23T14:24:00.177Z,97.50
2022-10-23T14:26:30.143Z,98.20
2022-10-23T14:29:00.666Z,98.10
2022-10-23T14:31:32.747Z,98.90
2022-10-23T14:34:01.599Z,98.90
2022-10-23T14:36:38.424Z,99.70
2022-10-23T14:39:16.221Z,99.80
2022-10-23T14:41:43.286Z,99.90
2022-10-23T14:44:10.301Z,99.90
2022-10-23T14:46:38.667Z,99.90
2022-10-23T14:49:06.242Z,99.90
2022-10-23T14:51:33.621Z,99.90
2022-10-23T14:54:02.162Z,99.90
2022-10-23T14:56:30.715Z,99.90
2022-10-23T14:59:02.787Z,99.90
2022-10-23T15:01:30.115Z,99.90
2022-10-23T15:03:58.502Z,99.90
2022-10-23T15:06:25.491Z,99.90
2022-10-23T15:08:55.145Z,99.90
2022-10-23T15:11:22.982Z,99.90
2022-10-23T15:13:49.965Z,99.90
2022-10-23T15:16:17.209Z,99.90
2022-10-23T15:18:44.060Z,99.90
2022-10-23T15:21:12.548Z,99.90
2022-10-23T15:23:40.777Z,99.90
2022-10-23T15:26:10.031Z,99.90
2022-10-23T15:28:37.302Z,99.90
2022-10-23T15:31:04.601Z,99.90
2022-10-23T15:33:31.642Z,99.90
2022-10-23T15:35:58.730Z,99.90
2022-10-23T15:38:26.958Z,99.90
2022-10-23T15:41:03.792Z,99.90
2022-10-23T15:43:30.733Z,99.90
2022-10-23T15:45:57.662Z,99.90
2022-10-23T15:48:24.551Z,99.90
2022-10-23T15:50:51.446Z,99.90
2022-10-23T15:53:18.368Z,99.90
2022-10-23T15:55:47.109Z,99.90
2022-10-23T15:58:14.028Z,99.90
2022-10-23T16:00:40.980Z,99.90
2022-10-23T16:03:08.061Z,99.90
2022-10-23T16:05:36.387Z,99.90
2022-10-23T16:08:03.428Z,99.90
2022-10-23T16:10:30.549Z,99.90
2022-10-23T16:12:58.847Z,99.90
2022-10-23T16:15:25.835Z,99.90
2022-10-23T16:17:52.727Z,99.90
2022-10-23T16:20:21.045Z,99.90
2022-10-23T16:22:48.083Z,99.90
2022-10-23T16:25:15.313Z,99.90
2022-10-23T16:27:42.681Z,99.90
2022-10-23T16:30:14.089Z,99.90
2022-10-23T16:32:41.274Z,99.90
2022-10-23T16:35:11.017Z,99.90
2022-10-23T16:37:52.887Z,99.90
2022-10-23T16:40:21.193Z,99.90
2022-10-23T16:43:06.842Z,99.90
2022-10-23T16:45:42.640Z,99.90
2022-10-23T16:48:09.620Z,99.90
2022-10-23T16:53:07.084Z,99.90
2022-10-23T16:55:34.001Z,99.90
2022-10-23T16:58:00.883Z,99.90
2022-10-23T17:00:34.769Z,99.90
2022-10-23T17:03:04.757Z,99.90
2022-10-23T17:05:34.319Z,99.90
2022-10-23T17:08:01.547Z,99.90
2022-10-23T17:10:28.536Z,99.90
2022-10-23T17:12:55.516Z,99.90
2022-10-23T17:15:23.847Z,99.90
2022-10-23T17:17:50.827Z,99.90
2022-10-23T17:20:19.328Z,99.90
2022-10-23T17:22:46.282Z,99.90
2022-10-23T17:25:13.324Z,99.90
2022-10-23T17:27:40.430Z,99.90
2022-10-23T17:30:12.545Z,99.90
2022-10-23T17:32:39.743Z,99.90
2022-10-23T17:35:07.514Z,99.90
2022-10-23T17:37:35.769Z,99.90
2022-10-23T17:40:03.436Z,99.90
2022-10-23T17:42:30.413Z,99.90
2022-10-23T17:44:57.515Z,99.90
2022-10-23T17:47:24.384Z,99.90
2022-10-23T17:49:51.272Z,99.90
2022-10-23T17:52:18.094Z,99.90
2022-10-23T17:54:46.335Z,99.90
2022-10-23T17:57:13.371Z,99.90
2022-10-23T17:59:40.299Z,99.90
2022-10-23T18:02:07.402Z,99.90
2022-10-23T18:04:34.908Z,99.90
2022-10-23T18:07:01.792Z,99.90
2022-10-23T18:09:28.831Z,99.90
2022-10-23T18:11:57.028Z,99.90
2022-10-23T18:14:26.140Z,99.90
2022-10-23T18:16:55.636Z,99.90
2022-10-23T18:19:22.493Z,99.90
2022-10-23T18:21:49.652Z,99.90
2022-10-23T18:24:16.711Z,99.90
2022-10-23T18:26:43.773Z,99.90
2022-10-23T18:29:12.970Z,99.90
2022-10-23T18:31:40.727Z,99.90
2022-10-23T18:34:17.843Z,99.90
2022-10-23T18:36:45.599Z,99.90
2022-10-23T18:39:15.008Z,99.90
2022-10-23T18:41:43.685Z,99.90
2022-10-23T18:44:14.793Z,99.90
2022-10-23T18:46:41.969Z,99.90
2022-10-23T18:49:09.142Z,99.90
2022-10-23T18:51:37.628Z,99.90
2022-10-23T18:54:07.252Z,99.90
2022-10-23T18:56:35.946Z,99.90
2022-10-23T18:59:05.198Z,99.90
2022-10-23T19:01:34.298Z,99.90
2022-10-23T19:04:02.233Z,99.90
2022-10-23T19:06:30.679Z,99.90
2022-10-23T19:08:57.852Z,99.90
2022-10-23T19:11:26.759Z,99.90
2022-10-23T19:13:53.809Z,99.90
2022-10-23T19:16:23.738Z,99.90
2022-10-23T19:18:56.043Z,99.90
2022-10-23T19:21:30.949Z,99.90
2022-10-23T19:24:00.147Z,99.90
2022-10-23T19:26:29.129Z,99.90
2022-10-23T19:28:56.763Z,99.90
2022-10-23T19:31:25.982Z,99.90
2022-10-23T19:33:54.378Z,99.90
2022-10-23T19:36:23.488Z,99.90
2022-10-23T19:38:50.691Z,99.90
2022-10-23T19:41:18.781Z,99.90
2022-10-23T19:43:45.700Z,99.90
2022-10-23T19:46:13.006Z,99.90
2022-10-23T19:48:44.408Z,99.90
2022-10-23T19:51:13.573Z,99.90
2022-10-23T19:53:41.764Z,99.90
2022-10-23T19:56:10.792Z,99.90
2022-10-23T19:58:38.041Z,99.90
2022-10-23T20:01:10.105Z,99.90
2022-10-23T20:03:38.012Z,99.90
2022-10-23T20:06:07.521Z,99.90
2022-10-23T20:08:35.751Z,99.90
2022-10-23T20:11:02.921Z,99.90
2022-10-23T20:13:29.778Z,99.90
2022-10-23T20:15:56.695Z,99.90
2022-10-23T20:18:23.717Z,99.90
2022-10-23T20:20:50.602Z,99.90
2022-10-23T20:23:17.524Z,99.90
2022-10-23T20:25:45.768Z,99.90
2022-10-23T20:28:14.384Z,99.90
2022-10-23T20:30:44.055Z,99.90
2022-10-23T20:33:10.988Z,99.90
2022-10-23T20:35:38.803Z,99.90
2022-10-23T20:38:05.741Z,99.90
2022-10-23T20:40:32.937Z,99.90
2022-10-23T20:43:01.240Z,99.90
2022-10-23T20:45:28.248Z,99.90
2022-10-23T20:47:55.277Z,99.90
2022-10-23T20:50:23.884Z,99.90
2022-10-23T20:52:51.025Z,99.90
2022-10-23T20:55:18.564Z,99.90
2022-10-23T20:57:45.911Z,99.90
2022-10-23T21:00:15.651Z,99.90
2022-10-23T21:02:45.781Z,99.90
2022-10-23T21:05:14.269Z,99.90
2022-10-23T21:07:41.273Z,99.90
2022-10-23T21:10:08.771Z,99.90
2022-10-23T21:12:35.747Z,99.90
2022-10-23T21:15:02.709Z,99.90
2022-10-23T21:17:35.354Z,99.70
2022-10-23T21:20:02.749Z,99.80
2022-10-23T21:22:29.829Z,99.70
2022-10-23T21:24:58.414Z,99.60
2022-10-23T21:27:25.301Z,99.40
2022-10-23T21:29:52.189Z,99.60
2022-10-23T21:32:20.300Z,99.50
2022-10-23T21:34:48.597Z,99.30
2022-10-23T21:37:15.486Z,99.30
2022-10-23T21:39:43.865Z,99.30
2022-10-23T21:42:11.221Z,99.30
2022-10-23T21:44:38.113Z,99.40
2022-10-23T21:47:05.561Z,99.50
2022-10-23T21:49:32.458Z,99.30
2022-10-23T21:52:00.731Z,99.40
2022-10-23T21:54:27.651Z,99.20
2022-10-23T21:56:54.817Z,99.20
2022-10-23T21:59:24.288Z,99.20
2022-10-23T22:01:51.787Z,99.20
2022-10-23T22:04:19.984Z,99.10
2022-10-23T22:06:48.687Z,99.10
2022-10-23T22:09:19.649Z,99.10
2022-10-23T22:11:48.011Z,99.20
2022-10-23T22:14:15.092Z,99.10
2022-10-23T22:16:42.262Z,99.20
2022-10-23T22:19:11.687Z,99.20
2022-10-23T22:21:40.115Z,99.20
2022-10-23T22:24:07.789Z,99.30
2022-10-23T22:26:37.963Z,99.20
2022-10-23T22:29:06.751Z,99.30
2022-10-23T22:31:35.286Z,99.30
2022-10-23T22:34:13.271Z,99.20
2022-10-23T22:36:51.518Z,99.20
2022-10-23T22:39:19.122Z,99.30
2022-10-23T22:41:47.825Z,99.20
2022-10-23T22:44:15.234Z,99.30
2022-10-23T22:46:42.694Z,99.30
2022-10-23T22:49:09.681Z,99.20
2022-10-23T22:51:37.833Z,99.30
2022-10-23T22:54:05.004Z,99.30
2022-10-23T22:56:32.032Z,99.30
2022-10-23T22:59:00.441Z,99.40
